Time;durP1;ratioP1;P1;durP2;ratioP2;P2;SDS_P1;SDS_P2;PMS_P1;PMS_P2;Temp;Humidity;BMP_temperature;BMP_pressure;BME280_temperature;BME280_humidity;BME280_pressure;Samples;Min_cycle;Max_cycle;Signal;HPM_P1;HPM_P2
2023/11/12 00:00:12;;;;;;;134.87;125.13;;;5.50;95.20;;;;;;5035848;28;20193;-90
2023/11/12 00:02:37;;;;;;;172.77;160.13;;;5.40;95.20;;;;;;5035636;28;20727;-91
2023/11/12 00:05:03;;;;;;;177.33;164.63;;;5.40;95.30;;;;;;5035648;28;20215;-92
2023/11/12 00:07:28;;;;;;;147.13;135.93;;;5.50;95.30;;;;;;5035622;28;20199;-91
2023/11/12 00:09:54;;;;;;;141.13;130.17;;;5.50;95.30;;;;;;5035157;28;20172;-90
2023/11/12 00:12:20;;;;;;;156.40;144.93;;;5.40;95.30;;;;;;5035561;28;20179;-89
2023/11/12 00:14:46;;;;;;;173.03;160.83;;;5.50;95.40;;;;;;5035596;28;20207;-90
2023/11/12 00:17:13;;;;;;;177.37;165.07;;;5.50;95.30;;;;;;5035478;28;20555;-92
2023/11/12 00:19:39;;;;;;;146.23;135.83;;;5.50;95.30;;;;;;5035322;28;20723;-89
2023/11/12 00:22:09;;;;;;;152.60;141.80;;;5.70;95.40;;;;;;5035347;28;20206;-91
2023/11/12 00:24:34;;;;;;;147.93;137.57;;;5.70;95.40;;;;;;5035497;28;20191;-91
2023/11/12 00:27:00;;;;;;;145.67;135.07;;;5.70;95.40;;;;;;5035265;28;20230;-90
2023/11/12 00:29:25;;;;;;;151.13;140.07;;;5.70;95.40;;;;;;5053124;28;20176;-91
2023/11/12 00:31:51;;;;;;;148.97;138.43;;;5.80;95.40;;;;;;5035159;28;20180;-91
2023/11/12 00:34:16;;;;;;;158.13;147.10;;;5.70;95.40;;;;;;5036427;28;20263;-90
2023/11/12 00:36:45;;;;;;;155.87;144.47;;;5.80;95.40;;;;;;5035157;28;20248;-89
2023/11/12 00:39:11;;;;;;;155.80;144.97;;;5.80;95.40;;;;;;5053127;28;20168;-88
2023/11/12 00:41:38;;;;;;;155.90;144.77;;;5.80;95.40;;;;;;5035129;28;20176;-90
2023/11/12 00:44:04;;;;;;;160.97;148.23;;;5.80;95.40;;;;;;5034958;28;20627;-89
2023/11/12 00:46:30;;;;;;;165.07;149.80;;;5.90;95.40;;;;;;5035201;28;20553;-89
2023/11/12 00:48:57;;;;;;;163.83;148.27;;;5.90;95.40;;;;;;5035003;28;20183;-90
2023/11/12 00:51:23;;;;;;;154.60;141.90;;;5.90;95.40;;;;;;5052998;28;20172;-89
2023/11/12 00:53:49;;;;;;;164.13;148.20;;;5.90;95.40;;;;;;5053186;28;20520;-89
2023/11/12 00:56:14;;;;;;;166.20;149.60;;;5.90;95.40;;;;;;5034852;28;20207;-89
2023/11/12 00:58:40;;;;;;;155.33;141.27;;;5.90;95.40;;;;;;5053405;28;20259;-90
2023/11/12 01:01:06;;;;;;;189.53;175.63;;;5.90;95.40;;;;;;5053142;28;20176;-90
2023/11/12 01:03:35;;;;;;;195.43;180.43;;;5.90;95.40;;;;;;5035085;28;20222;-88
2023/11/12 01:06:04;;;;;;;198.33;181.67;;;5.90;95.40;;;;;;5035084;28;20206;-92
2023/11/12 01:08:30;;;;;;;194.97;179.83;;;6.00;95.50;;;;;;5035101;28;20671;-91
2023/11/12 01:10:58;;;;;;;198.43;182.93;;;6.10;95.50;;;;;;5052982;28;20176;-91
2023/11/12 01:13:24;;;;;;;200.87;184.70;;;6.10;95.50;;;;;;5034947;28;20648;-90
2023/11/12 01:15:49;;;;;;;201.60;186.47;;;6.20;95.50;;;;;;5034847;28;20207;-91
2023/11/12 01:18:16;;;;;;;203.17;188.03;;;6.20;95.60;;;;;;5034965;28;20279;-91
2023/11/12 01:20:42;;;;;;;203.70;188.43;;;6.20;95.50;;;;;;5036091;28;20180;-91
2023/11/12 01:23:07;;;;;;;196.07;181.60;;;6.10;95.50;;;;;;5038716;28;20207;-91
2023/11/12 01:25:33;;;;;;;221.23;200.53;;;6.00;95.50;;;;;;5039811;28;20244;-92
2023/11/12 01:27:59;;;;;;;195.90;180.37;;;6.00;95.50;;;;;;5038822;28;20199;-91
2023/11/12 01:30:25;;;;;;;205.17;189.10;;;6.20;95.60;;;;;;5038942;28;20255;-90
2023/11/12 01:32:52;;;;;;;209.17;192.73;;;6.20;95.60;;;;;;5056398;28;20171;-90
2023/11/12 01:35:19;;;;;;;190.40;174.90;;;6.20;95.60;;;;;;5038346;28;20192;-89
2023/11/12 01:37:45;;;;;;;184.03;168.63;;;6.30;95.60;;;;;;5038423;28;20176;-91
2023/11/12 01:40:12;;;;;;;178.97;164.20;;;6.30;95.60;;;;;;5038328;28;20180;-92
2023/11/12 01:42:37;;;;;;;193.80;177.37;;;6.30;95.60;;;;;;5038592;28;20269;-90
2023/11/12 01:45:04;;;;;;;213.30;196.00;;;6.30;95.60;;;;;;5038205;28;20175;-90
2023/11/12 01:47:30;;;;;;;211.63;195.13;;;6.30;95.60;;;;;;5056049;28;20256;-92
2023/11/12 01:49:56;;;;;;;182.97;167.67;;;6.30;95.60;;;;;;5038225;28;20646;-90
2023/11/12 01:52:22;;;;;;;173.13;158.40;;;6.30;95.60;;;;;;5056097;28;20543;-92
2023/11/12 01:54:49;;;;;;;214.87;197.23;;;6.30;95.60;;;;;;5039625;28;20180;-90
2023/11/12 01:57:14;;;;;;;204.40;187.67;;;6.30;95.60;;;;;;5037830;28;20207;-91
2023/11/12 01:59:40;;;;;;;210.50;193.43;;;6.30;95.50;;;;;;5037947;28;20333;-91
2023/11/12 02:02:05;;;;;;;174.07;158.93;;;6.30;95.60;;;;;;5038253;28;20203;-92
2023/11/12 02:04:31;;;;;;;181.90;165.97;;;6.30;95.60;;;;;;5055661;28;20250;-91
2023/11/12 02:06:59;;;;;;;181.83;166.10;;;6.30;95.60;;;;;;5055862;28;20672;-92
2023/11/12 02:09:24;;;;;;;182.63;166.53;;;6.40;95.60;;;;;;5037880;28;20220;-91
2023/11/12 02:11:54;;;;;;;177.77;162.30;;;6.40;95.60;;;;;;5055553;28;20218;-91
2023/11/12 02:14:21;;;;;;;183.40;167.77;;;6.30;95.60;;;;;;5055487;28;20230;-91
2023/11/12 02:16:48;;;;;;;189.57;172.50;;;6.30;95.60;;;;;;5055407;28;20192;-91
2023/11/12 02:19:24;;;;;;;186.03;170.13;;;6.50;95.70;;;;;;5037606;28;20207;-91
2023/11/12 02:21:50;;;;;;;192.60;176.30;;;6.50;95.70;;;;;;5037519;28;20271;-91
2023/11/12 02:24:16;;;;;;;182.57;166.87;;;6.50;95.70;;;;;;5037510;28;20266;-91
2023/11/12 02:26:42;;;;;;;194.03;178.00;;;6.50;95.70;;;;;;5037453;28;20580;-90
2023/11/12 02:29:08;;;;;;;190.53;174.50;;;6.50;95.70;;;;;;5038088;28;20180;-91
2023/11/12 02:31:34;;;;;;;187.40;170.30;;;6.60;95.70;;;;;;5036919;28;20721;-91
2023/11/12 02:33:59;;;;;;;193.77;177.87;;;6.50;95.70;;;;;;5037302;28;20168;-90
2023/11/12 02:36:26;;;;;;;191.47;174.27;;;6.60;95.60;;;;;;5037599;28;20254;-91
2023/11/12 02:38:51;;;;;;;187.50;171.50;;;6.60;95.70;;;;;;5037254;28;20191;-91
2023/11/12 02:41:18;;;;;;;192.70;175.30;;;6.60;95.70;;;;;;5037162;28;20561;-91
2023/11/12 02:43:44;;;;;;;185.53;169.67;;;6.60;95.70;;;;;;5037073;28;20204;-91
2023/11/12 02:46:10;;;;;;;198.33;181.47;;;6.60;95.60;;;;;;5037060;28;20200;-92
2023/11/12 02:48:57;;;;;;;202.67;184.93;;;6.60;95.70;;;;;;5036998;28;20667;-91
2023/11/12 02:51:23;;;;;;;197.20;179.90;;;6.70;95.70;;;;;;5036986;28;20219;-92
2023/11/12 02:53:48;;;;;;;195.47;178.83;;;6.60;95.60;;;;;;5037252;28;20184;-91
2023/11/12 02:56:16;;;;;;;202.73;184.37;;;6.50;95.60;;;;;;5036973;28;20258;-92
2023/11/12 02:58:42;;;;;;;203.93;186.83;;;6.50;95.60;;;;;;5036760;28;20223;-91
2023/11/12 03:01:07;;;;;;;199.80;182.07;;;6.50;95.70;;;;;;5036763;28;20183;-91
2023/11/12 03:03:33;;;;;;;205.27;188.33;;;6.50;95.60;;;;;;5037286;28;20200;-91
2023/11/12 03:05:58;;;;;;;200.50;183.77;;;6.60;95.70;;;;;;5036683;28;20200;-91
2023/11/12 03:08:24;;;;;;;204.13;185.17;;;6.50;95.70;;;;;;5036704;28;20180;-91
2023/11/12 03:10:49;;;;;;;202.10;184.90;;;6.60;95.70;;;;;;5054527;28;20241;-91
2023/11/12 03:13:15;;;;;;;201.27;184.03;;;6.70;95.70;;;;;;5036555;28;20225;-91
2023/11/12 03:15:40;;;;;;;206.57;189.13;;;6.70;95.70;;;;;;5036482;28;20246;-92
2023/11/12 03:18:06;;;;;;;202.07;184.80;;;6.70;95.70;;;;;;5036515;28;20172;-92
2023/11/12 03:20:32;;;;;;;202.30;185.50;;;6.60;95.70;;;;;;5036469;28;20249;-91
2023/11/12 03:22:57;;;;;;;191.73;175.13;;;6.60;95.70;;;;;;5036343;28;20200;-91
2023/11/12 03:25:23;;;;;;;162.50;148.17;;;6.60;95.70;;;;;;5036254;28;20718;-91
2023/11/12 03:27:48;;;;;;;156.70;141.33;;;6.60;95.80;;;;;;5036314;28;20267;-92
2023/11/12 03:30:14;;;;;;;195.67;178.17;;;6.60;95.80;;;;;;5036515;28;20184;-91
2023/11/12 03:32:39;;;;;;;202.10;184.63;;;6.60;95.70;;;;;;5036359;28;20180;-92
2023/11/12 03:35:06;;;;;;;184.80;168.80;;;6.60;95.80;;;;;;5036769;28;20314;-92
2023/11/12 03:37:32;;;;;;;172.10;155.30;;;6.60;95.80;;;;;;5036230;28;20179;-91
2023/11/12 03:39:57;;;;;;;162.40;147.60;;;6.60;95.80;;;;;;5036177;28;20191;-92
2023/11/12 03:42:23;;;;;;;195.90;179.30;;;6.70;95.80;;;;;;5035947;28;20223;-92
2023/11/12 03:44:49;;;;;;;192.10;176.13;;;6.70;95.80;;;;;;5035412;28;20546;-91
2023/11/12 03:47:16;;;;;;;168.47;153.80;;;6.70;95.80;;;;;;5035967;28;20275;-91
2023/11/12 03:49:42;;;;;;;162.50;148.43;;;6.70;95.90;;;;;;5036005;28;20176;-90
2023/11/12 03:52:08;;;;;;;160.87;146.63;;;6.70;95.90;;;;;;5036279;28;20172;-91
2023/11/12 03:54:36;;;;;;;145.53;132.23;;;6.70;95.90;;;;;;5035774;28;20237;-91
2023/11/12 03:57:02;;;;;;;139.20;126.47;;;6.80;95.90;;;;;;5035814;28;20227;-90
2023/11/12 03:59:28;;;;;;;124.97;112.97;;;6.80;95.90;;;;;;5035786;28;20183;-92
2023/11/12 04:01:53;;;;;;;123.83;112.60;;;6.80;95.90;;;;;;5035705;28;20673;-91
2023/11/12 04:04:19;;;;;;;123.70;112.40;;;6.80;96.00;;;;;;5053523;28;20179;-91
2023/11/12 04:06:44;;;;;;;119.77;108.37;;;6.80;96.00;;;;;;5053362;28;20564;-91
2023/11/12 04:09:10;;;;;;;119.00;108.43;;;6.80;96.00;;;;;;5035661;28;20187;-91
2023/11/12 04:11:37;;;;;;;133.17;121.90;;;6.80;96.00;;;;;;5035740;28;20176;-90
2023/11/12 04:14:03;;;;;;;130.97;120.43;;;6.80;96.00;;;;;;5035537;28;20180;-91
2023/11/12 04:16:28;;;;;;;107.07;97.67;;;6.80;96.10;;;;;;5035483;28;20261;-91
2023/11/12 04:18:55;;;;;;;103.27;94.27;;;6.80;96.10;;;;;;5035597;28;20242;-91
2023/11/12 04:21:21;;;;;;;97.80;89.60;;;6.80;96.10;;;;;;5035428;28;20612;-90
2023/11/12 04:23:48;;;;;;;94.43;86.10;;;6.80;96.20;;;;;;5035632;28;20203;-91
2023/11/12 04:26:15;;;;;;;96.77;87.90;;;6.80;96.20;;;;;;5035401;28;20196;-90
2023/11/12 04:28:41;;;;;;;88.97;81.53;;;6.80;96.20;;;;;;5035497;28;20184;-91
2023/11/12 04:31:06;;;;;;;89.17;81.73;;;6.80;96.20;;;;;;5053253;28;20225;-92
2023/11/12 04:33:32;;;;;;;120.33;111.43;;;6.80;96.20;;;;;;5053160;28;20175;-91
2023/11/12 04:35:58;;;;;;;116.07;107.43;;;6.80;96.30;;;;;;5053009;28;20287;-90
2023/11/12 04:38:23;;;;;;;117.20;107.97;;;6.80;96.20;;;;;;5053049;28;20194;-91
2023/11/12 04:40:48;;;;;;;112.97;104.53;;;6.80;96.30;;;;;;5035213;28;20182;-90
2023/11/12 04:43:18;;;;;;;109.87;101.13;;;6.80;96.30;;;;;;5035314;28;20235;-89
2023/11/12 04:45:44;;;;;;;103.83;96.53;;;6.80;96.30;;;;;;5035221;28;20198;-91
2023/11/12 04:48:11;;;;;;;108.23;100.83;;;6.80;96.30;;;;;;5035212;28;20183;-91
2023/11/12 04:50:37;;;;;;;109.67;101.30;;;6.80;96.30;;;;;;5035274;28;20168;-90
2023/11/12 04:53:04;;;;;;;110.63;102.63;;;6.80;96.30;;;;;;5035155;28;20234;-91
2023/11/12 04:55:29;;;;;;;110.43;101.97;;;6.80;96.30;;;;;;5037624;28;20679;-91
2023/11/12 04:57:55;;;;;;;110.27;102.20;;;6.80;96.30;;;;;;5039220;28;20202;-91
2023/11/12 05:00:20;;;;;;;110.03;102.60;;;6.80;96.30;;;;;;5039211;28;20206;-92
2023/11/12 05:02:46;;;;;;;101.17;93.80;;;6.80;96.30;;;;;;5039085;28;20314;-91
2023/11/12 05:05:11;;;;;;;110.63;102.53;;;6.80;96.40;;;;;;5057145;28;20632;-89
2023/11/12 05:07:38;;;;;;;108.50;100.77;;;6.80;96.30;;;;;;5056942;28;20167;-89
2023/11/12 05:10:05;;;;;;;99.73;91.67;;;6.80;96.30;;;;;;5038993;28;20709;-91
2023/11/12 05:12:31;;;;;;;77.77;71.53;;;6.80;96.30;;;;;;5039191;28;20562;-91
2023/11/12 05:14:56;;;;;;;81.67;74.77;;;6.80;96.30;;;;;;5038854;28;20180;-90
2023/11/12 05:17:22;;;;;;;112.20;104.43;;;6.80;96.30;;;;;;5038686;28;20235;-91
2023/11/12 05:19:48;;;;;;;111.87;103.77;;;6.80;96.30;;;;;;5056485;28;20712;-90
2023/11/12 05:22:13;;;;;;;113.50;104.43;;;6.80;96.30;;;;;;5056794;28;20196;-90
2023/11/12 05:24:39;;;;;;;81.87;75.07;;;6.80;96.30;;;;;;5038639;28;20232;-90
2023/11/12 05:27:04;;;;;;;81.73;75.37;;;6.80;96.30;;;;;;5056577;28;20198;-90
2023/11/12 05:29:30;;;;;;;111.10;102.70;;;6.80;96.30;;;;;;5056446;28;20640;-91
2023/11/12 05:31:56;;;;;;;109.53;101.73;;;6.80;96.30;;;;;;5056706;28;20164;-91
2023/11/12 05:34:22;;;;;;;115.30;107.00;;;6.70;96.20;;;;;;5039618;28;20187;-91
2023/11/12 05:36:47;;;;;;;83.87;77.43;;;6.70;96.20;;;;;;5038369;28;20188;-90
2023/11/12 05:39:14;;;;;;;83.80;76.83;;;6.70;96.20;;;;;;5039262;28;20176;-91
2023/11/12 05:41:40;;;;;;;84.90;78.17;;;6.80;96.20;;;;;;5038327;28;20552;-90
2023/11/12 05:44:06;;;;;;;86.43;79.87;;;6.70;96.10;;;;;;5038165;28;20225;-91
2023/11/12 05:46:31;;;;;;;82.90;76.43;;;6.70;96.10;;;;;;5038130;28;20192;-91
2023/11/12 05:48:57;;;;;;;82.27;75.83;;;6.60;96.00;;;;;;5038259;28;20179;-90
2023/11/12 05:51:22;;;;;;;84.70;77.97;;;6.70;96.00;;;;;;5055979;28;20544;-91
2023/11/12 05:53:48;;;;;;;82.70;75.77;;;6.70;95.90;;;;;;5056029;28;20172;-89
2023/11/12 05:56:14;;;;;;;80.13;73.90;;;6.60;95.90;;;;;;5055863;28;20199;-91
2023/11/12 05:58:39;;;;;;;79.80;73.50;;;6.60;95.80;;;;;;5038072;28;20195;-91
2023/11/12 06:01:06;;;;;;;82.23;75.33;;;6.60;95.80;;;;;;5021682;28;20200;-89
2023/11/12 06:03:31;;;;;;;85.13;77.47;;;6.70;95.80;;;;;;5037928;28;20287;-91
2023/11/12 06:05:57;;;;;;;83.93;77.43;;;6.70;95.80;;;;;;5037457;28;20737;-89
2023/11/12 06:08:22;;;;;;;80.43;74.10;;;6.60;95.70;;;;;;5055557;28;20256;-89
2023/11/12 06:10:48;;;;;;;76.77;70.77;;;6.60;95.60;;;;;;5037720;28;20176;-90
2023/11/12 06:13:15;;;;;;;74.90;68.70;;;6.50;95.50;;;;;;5037825;28;20632;-89
2023/11/12 06:15:41;;;;;;;80.83;73.70;;;6.50;95.50;;;;;;5037679;28;20271;-90
2023/11/12 06:18:07;;;;;;;80.30;73.67;;;6.50;95.40;;;;;;5055658;28;20222;-89
2023/11/12 06:20:33;;;;;;;103.97;95.73;;;6.50;95.40;;;;;;5055840;28;20173;-89
2023/11/12 06:22:58;;;;;;;101.47;93.80;;;6.40;95.30;;;;;;5037435;28;20203;-90
2023/11/12 06:25:25;;;;;;;103.83;95.87;;;6.40;95.20;;;;;;5037426;28;20242;-90
2023/11/12 06:27:51;;;;;;;99.93;91.73;;;6.40;95.20;;;;;;5037475;28;20183;-91
2023/11/12 06:30:16;;;;;;;102.80;94.37;;;6.30;95.20;;;;;;5037496;28;20179;-91
2023/11/12 06:32:46;;;;;;;106.43;98.03;;;6.40;95.20;;;;;;5055129;28;20179;-90
2023/11/12 06:35:12;;;;;;;105.47;97.73;;;6.30;95.10;;;;;;5055064;28;20168;-89
2023/11/12 06:37:38;;;;;;;103.33;95.67;;;6.30;95.10;;;;;;5037309;28;20176;-90
2023/11/12 06:40:06;;;;;;;103.60;95.87;;;6.20;95.10;;;;;;5037191;28;20187;-89
2023/11/12 06:42:32;;;;;;;102.23;94.47;;;6.20;95.20;;;;;;5037179;28;20204;-91
2023/11/12 06:44:58;;;;;;;96.63;88.70;;;6.20;95.10;;;;;;5037186;28;20183;-90
2023/11/12 06:47:24;;;;;;;101.47;93.93;;;6.20;95.10;;;;;;5037073;28;20214;-91
2023/11/12 06:49:49;;;;;;;104.73;96.90;;;6.30;95.20;;;;;;5037488;28;20176;-91
2023/11/12 06:52:16;;;;;;;102.53;94.80;;;6.20;95.20;;;;;;5054829;28;20172;-90
2023/11/12 06:54:42;;;;;;;99.90;92.50;;;6.30;95.20;;;;;;5036990;28;20289;-91
2023/11/12 06:57:07;;;;;;;106.07;98.37;;;6.20;95.20;;;;;;5037100;28;20242;-91
2023/11/12 06:59:33;;;;;;;78.10;71.70;;;6.20;95.20;;;;;;5037006;28;20172;-91
2023/11/12 07:01:58;;;;;;;79.73;73.40;;;6.20;95.20;;;;;;5036811;28;20229;-91
2023/11/12 07:04:24;;;;;;;99.33;91.10;;;6.20;95.30;;;;;;5037337;28;20535;-91
2023/11/12 07:06:50;;;;;;;98.33;90.37;;;6.20;95.30;;;;;;5036644;28;20549;-91
2023/11/12 07:09:15;;;;;;;105.67;97.30;;;6.20;95.30;;;;;;5036750;28;20314;-90
2023/11/12 07:11:41;;;;;;;76.77;70.23;;;6.20;95.30;;;;;;5037082;28;20175;-91
2023/11/12 07:14:07;;;;;;;74.73;68.00;;;6.20;95.30;;;;;;5054713;28;20179;-91
2023/11/12 07:16:32;;;;;;;104.10;95.53;;;6.20;95.30;;;;;;5036519;28;20196;-91
2023/11/12 07:18:58;;;;;;;105.40;97.30;;;6.20;95.30;;;;;;5036792;28;20172;-91
2023/11/12 07:21:28;;;;;;;109.60;101.17;;;6.20;95.30;;;;;;5036757;28;20205;-89
2023/11/12 07:23:54;;;;;;;78.33;71.50;;;6.20;95.40;;;;;;5036409;28;20203;-91
2023/11/12 07:26:19;;;;;;;80.53;73.00;;;6.20;95.40;;;;;;5036448;28;20192;-91
2023/11/12 07:28:45;;;;;;;76.53;69.40;;;6.20;95.40;;;;;;5054121;28;20587;-91
2023/11/12 07:31:11;;;;;;;79.77;72.63;;;6.20;95.40;;;;;;5054050;28;20254;-89
2023/11/12 07:33:37;;;;;;;77.27;70.30;;;6.20;95.40;;;;;;5036406;28;20200;-90
2023/11/12 07:36:05;;;;;;;79.87;72.27;;;6.20;95.40;;;;;;5053934;28;20192;-90
2023/11/12 07:38:30;;;;;;;80.93;73.33;;;6.20;95.40;;;;;;5036148;28;20191;-92
2023/11/12 07:40:56;;;;;;;81.70;73.97;;;6.20;95.40;;;;;;5036021;28;20172;-90
2023/11/12 07:43:21;;;;;;;80.53;73.30;;;6.20;95.40;;;;;;5036471;28;20238;-91
2023/11/12 07:45:47;;;;;;;82.80;74.97;;;6.20;95.40;;;;;;5035872;28;20199;-90
2023/11/12 07:48:12;;;;;;;85.60;77.57;;;6.20;95.40;;;;;;5036010;28;20560;-91
2023/11/12 07:50:38;;;;;;;82.60;74.33;;;6.20;95.40;;;;;;5053759;28;20636;-91
2023/11/12 07:53:04;;;;;;;83.33;75.50;;;6.20;95.40;;;;;;5035822;28;20176;-91
2023/11/12 07:55:29;;;;;;;85.03;76.37;;;6.20;95.40;;;;;;5053471;28;20199;-90
2023/11/12 07:57:55;;;;;;;85.53;77.23;;;6.20;95.40;;;;;;5053505;28;20196;-90
2023/11/12 08:00:22;;;;;;;82.67;74.80;;;6.20;95.40;;;;;;5053863;28;20558;-90
2023/11/12 08:02:48;;;;;;;81.50;73.17;;;6.20;95.40;;;;;;5036024;28;20195;-90
2023/11/12 08:05:14;;;;;;;83.47;75.30;;;6.30;95.50;;;;;;5035625;28;20271;-91
2023/11/12 08:07:40;;;;;;;114.20;103.93;;;6.30;95.40;;;;;;5035740;28;20241;-90
2023/11/12 08:10:08;;;;;;;114.77;105.23;;;6.30;95.40;;;;;;5035591;28;20179;-90
2023/11/12 08:12:34;;;;;;;115.03;105.03;;;6.30;95.40;;;;;;5035518;28;20180;-90
2023/11/12 08:14:59;;;;;;;113.30;103.57;;;6.30;95.40;;;;;;5053346;28;20289;-90
2023/11/12 08:17:25;;;;;;;114.63;105.47;;;6.40;95.50;;;;;;5035399;28;20291;-90
2023/11/12 08:19:52;;;;;;;112.83;103.17;;;6.40;95.40;;;;;;5035326;28;20172;-90
2023/11/12 08:22:18;;;;;;;111.17;101.43;;;6.50;95.50;;;;;;5035308;28;20180;-90
2023/11/12 08:24:43;;;;;;;111.33;101.93;;;6.60;95.40;;;;;;5035404;28;20237;-90
2023/11/12 08:27:09;;;;;;;109.27;99.93;;;6.60;95.40;;;;;;5035266;28;20664;-89
2023/11/12 08:29:35;;;;;;;114.50;104.13;;;6.50;95.20;;;;;;5052699;28;20179;-90
2023/11/12 08:32:00;;;;;;;103.27;93.60;;;6.50;95.30;;;;;;5035380;28;20207;-90
2023/11/12 08:34:26;;;;;;;102.00;92.67;;;6.50;95.30;;;;;;5037039;28;20176;-91
2023/11/12 08:36:55;;;;;;;113.77;104.00;;;6.50;95.30;;;;;;5037135;28;20197;-91
2023/11/12 08:39:20;;;;;;;116.77;106.77;;;6.50;95.30;;;;;;5035330;28;20183;-92
2023/11/12 08:41:46;;;;;;;112.37;102.40;;;6.50;95.30;;;;;;5036995;28;20172;-90
2023/11/12 08:44:13;;;;;;;118.40;108.30;;;6.50;95.30;;;;;;5053721;28;20287;-92
2023/11/12 08:46:39;;;;;;;115.40;105.83;;;6.60;95.30;;;;;;5035410;28;20317;-91
2023/11/12 08:49:06;;;;;;;119.70;109.40;;;6.60;95.30;;;;;;5036923;28;20183;-88
2023/11/12 08:51:32;;;;;;;114.17;104.23;;;6.70;95.30;;;;;;5038057;28;20176;-92
2023/11/12 08:53:57;;;;;;;79.50;71.60;;;6.70;95.30;;;;;;5037365;28;20182;-91
2023/11/12 08:56:23;;;;;;;84.30;76.20;;;6.70;95.30;;;;;;5037663;28;20310;-90
2023/11/12 08:58:48;;;;;;;105.23;96.00;;;6.80;95.30;;;;;;5035944;28;20187;-91
2023/11/12 09:01:14;;;;;;;111.60;101.63;;;6.80;95.20;;;;;;5053096;28;20184;-91
2023/11/12 09:03:40;;;;;;;113.03;103.07;;;6.80;95.10;;;;;;5035810;28;20203;-92
2023/11/12 09:06:06;;;;;;;86.60;77.77;;;6.80;95.00;;;;;;5037768;28;20215;-92
2023/11/12 09:08:31;;;;;;;83.33;75.10;;;6.80;95.00;;;;;;5037674;28;20176;-91
2023/11/12 09:10:57;;;;;;;106.93;97.37;;;6.80;95.00;;;;;;5037507;28;20289;-91
2023/11/12 09:13:22;;;;;;;105.83;96.40;;;6.80;95.00;;;;;;5036575;28;20179;-92
2023/11/12 09:15:48;;;;;;;113.07;102.37;;;6.80;95.00;;;;;;5052900;28;20242;-91
2023/11/12 09:18:14;;;;;;;91.63;82.63;;;6.80;95.00;;;;;;5036056;28;20287;-89
2023/11/12 09:20:39;;;;;;;90.93;81.47;;;6.80;94.90;;;;;;5035419;28;20233;-90
2023/11/12 09:23:05;;;;;;;89.20;80.70;;;6.80;94.90;;;;;;5038661;28;20199;-92
2023/11/12 09:25:31;;;;;;;88.50;80.00;;;6.80;94.80;;;;;;5038140;28;20199;-92
2023/11/12 09:27:57;;;;;;;88.73;79.80;;;6.80;94.90;;;;;;5040596;28;20183;-92
2023/11/12 09:30:23;;;;;;;83.63;74.97;;;6.80;94.80;;;;;;5037322;28;20263;-92
2023/11/12 09:32:49;;;;;;;87.00;78.50;;;6.80;94.70;;;;;;5036540;28;20172;-91
2023/11/12 09:35:15;;;;;;;84.03;76.43;;;6.80;94.60;;;;;;5035494;28;20180;-92
2023/11/12 09:37:41;;;;;;;85.20;77.13;;;6.70;94.50;;;;;;5035533;28;20275;-91
2023/11/12 09:40:10;;;;;;;79.93;72.30;;;6.70;94.50;;;;;;5038412;28;20186;-91
2023/11/12 09:42:38;;;;;;;76.53;69.13;;;6.80;94.50;;;;;;5043228;28;20207;-91
2023/11/12 09:45:08;;;;;;;79.53;71.73;;;6.70;94.30;;;;;;5041909;28;20180;-91
2023/11/12 09:47:58;;;;;;;78.93;71.37;;;6.80;94.40;;;;;;5041764;28;20187;-92
2023/11/12 09:50:24;;;;;;;77.37;70.23;;;6.80;94.40;;;;;;5042022;28;20169;-92
2023/11/12 09:52:52;;;;;;;72.67;66.37;;;6.90;94.40;;;;;;5040820;28;20704;-91
2023/11/12 09:55:19;;;;;;;75.13;67.73;;;6.90;94.30;;;;;;5038294;28;20180;-90
2023/11/12 09:57:46;;;;;;;80.43;72.57;;;6.90;94.40;;;;;;5038231;28;20543;-91
2023/11/12 10:00:13;;;;;;;77.13;69.37;;;7.00;94.20;;;;;;5038965;28;20308;-91
2023/11/12 10:02:40;;;;;;;101.70;92.63;;;7.00;94.30;;;;;;5038139;28;20279;-90
2023/11/12 10:05:10;;;;;;;99.50;90.73;;;7.10;94.30;;;;;;5038045;28;20172;-89
2023/11/12 10:07:46;;;;;;;103.07;94.27;;;7.00;94.10;;;;;;5038043;28;20176;-89
2023/11/12 10:10:26;;;;;;;92.97;84.60;;;7.00;94.10;;;;;;5056082;28;20517;-92
2023/11/12 10:12:56;;;;;;;97.70;88.90;;;7.10;94.10;;;;;;5038087;28;20160;-91
2023/11/12 10:15:23;;;;;;;97.83;89.50;;;7.00;94.00;;;;;;5038060;28;20218;-91
2023/11/12 10:17:51;;;;;;;99.40;90.50;;;7.10;93.90;;;;;;5037936;28;20179;-91
2023/11/12 10:20:22;;;;;;;102.20;93.30;;;7.10;93.80;;;;;;5038480;28;20586;-90
2023/11/12 10:22:48;;;;;;;97.80;89.47;;;7.20;93.80;;;;;;5058043;28;20199;-92
2023/11/12 10:25:15;;;;;;;97.33;88.77;;;7.10;93.70;;;;;;5040622;28;20597;-91
2023/11/12 10:27:54;;;;;;;98.10;89.77;;;7.20;93.80;;;;;;5038175;28;20172;-90
2023/11/12 10:30:20;;;;;;;98.73;90.77;;;7.30;93.80;;;;;;5037642;28;20234;-91
2023/11/12 10:32:46;;;;;;;96.60;87.83;;;7.30;93.80;;;;;;5058322;28;20206;-92
2023/11/12 10:35:24;;;;;;;101.43;92.77;;;7.30;93.60;;;;;;5044056;28;20192;-91
2023/11/12 10:37:59;;;;;;;105.20;96.03;;;7.40;93.70;;;;;;5037629;28;20198;-89
2023/11/12 10:40:25;;;;;;;103.20;94.13;;;7.40;93.70;;;;;;5037174;28;20176;-90
2023/11/12 10:42:58;;;;;;;74.20;66.67;;;7.40;93.60;;;;;;5037250;28;20580;-90
2023/11/12 10:45:25;;;;;;;73.57;66.20;;;7.40;93.80;;;;;;5055216;28;20301;-90
2023/11/12 10:47:54;;;;;;;91.80;84.20;;;7.30;93.80;;;;;;5037163;28;20674;-89
2023/11/12 10:50:20;;;;;;;92.53;84.60;;;7.30;93.80;;;;;;5037245;28;20176;-90
2023/11/12 10:52:46;;;;;;;76.80;69.53;;;7.30;94.00;;;;;;5054466;28;20168;-90
2023/11/12 10:55:14;;;;;;;80.30;72.70;;;7.30;94.10;;;;;;5037021;28;20180;-90
2023/11/12 10:57:43;;;;;;;76.27;68.97;;;7.20;94.20;;;;;;5036837;28;20283;-89
2023/11/12 11:00:11;;;;;;;100.63;92.10;;;7.10;94.30;;;;;;5037027;28;20190;-91
2023/11/12 11:02:44;;;;;;;97.30;88.97;;;7.10;94.40;;;;;;5037140;28;20258;-90
2023/11/12 11:05:11;;;;;;;74.60;67.73;;;7.00;94.40;;;;;;5037484;28;20654;-91
2023/11/12 11:07:37;;;;;;;70.57;63.43;;;7.10;94.50;;;;;;5037772;28;20263;-92
2023/11/12 11:10:03;;;;;;;76.30;68.83;;;7.00;94.50;;;;;;5037902;28;20203;-90
2023/11/12 11:12:30;;;;;;;75.97;68.80;;;7.00;94.50;;;;;;5040295;28;20263;-92
2023/11/12 11:15:15;;;;;;;73.30;66.23;;;7.00;94.60;;;;;;5038291;28;20180;-92
2023/11/12 11:17:41;;;;;;;72.57;65.07;;;7.10;94.60;;;;;;5039188;28;20183;-92
2023/11/12 11:20:07;;;;;;;74.97;67.40;;;7.10;94.70;;;;;;5041790;28;20237;-92
2023/11/12 11:22:33;;;;;;;72.73;65.50;;;7.20;94.80;;;;;;5058406;28;20200;-90
2023/11/12 11:25:19;;;;;;;71.47;64.23;;;7.30;94.80;;;;;;5036628;28;20198;-90
2023/11/12 11:27:46;;;;;;;71.50;64.13;;;7.40;94.60;;;;;;5038570;28;20180;-91
2023/11/12 11:30:16;;;;;;;75.80;68.43;;;7.50;94.60;;;;;;5037231;28;20199;-91
2023/11/12 11:32:59;;;;;;;76.87;69.23;;;7.60;94.50;;;;;;5036691;28;20176;-90
2023/11/12 11:35:26;;;;;;;74.07;66.70;;;7.60;94.40;;;;;;5036301;28;20188;-91
2023/11/12 11:38:11;;;;;;;78.57;70.83;;;7.70;94.30;;;;;;5036351;28;20183;-92
2023/11/12 11:40:42;;;;;;;78.20;70.30;;;7.60;94.10;;;;;;5036563;28;20682;-91
2023/11/12 11:43:23;;;;;;;76.57;68.97;;;7.60;94.00;;;;;;5037754;28;20197;-90
2023/11/12 11:46:05;;;;;;;76.17;68.77;;;7.60;93.70;;;;;;5035980;28;20215;-90
2023/11/12 11:48:31;;;;;;;74.93;67.73;;;7.70;93.70;;;;;;5036647;28;20160;-90
2023/11/12 11:50:57;;;;;;;76.33;68.50;;;7.70;93.50;;;;;;5054082;28;20514;-91
2023/11/12 11:53:27;;;;;;;98.40;89.47;;;7.70;93.30;;;;;;5036340;28;20588;-90
2023/11/12 11:56:03;;;;;;;94.60;85.77;;;7.70;93.40;;;;;;5036191;28;20196;-91
2023/11/12 11:58:45;;;;;;;87.97;80.17;;;7.80;93.30;;;;;;5054604;28;20196;-90
2023/11/12 12:01:10;;;;;;;84.43;76.53;;;7.70;93.10;;;;;;5036126;28;20171;-92
2023/11/12 12:03:36;;;;;;;81.43;74.13;;;7.80;93.00;;;;;;5035924;28;20196;-92
2023/11/12 12:06:23;;;;;;;81.53;74.87;;;7.80;92.60;;;;;;5037313;28;20188;-91
2023/11/12 12:08:52;;;;;;;86.03;78.77;;;7.70;92.40;;;;;;5036656;28;20164;-91
2023/11/12 12:11:22;;;;;;;83.60;76.60;;;7.80;92.50;;;;;;5036697;28;20206;-91
2023/11/12 12:14:02;;;;;;;83.93;76.37;;;7.80;92.30;;;;;;5036122;28;20174;-91
2023/11/12 12:16:29;;;;;;;92.13;84.20;;;7.80;92.20;;;;;;5037899;28;20249;-92
2023/11/12 12:18:55;;;;;;;88.23;81.13;;;7.80;92.20;;;;;;5037828;28;20184;-90
2023/11/12 12:21:21;;;;;;;87.03;79.73;;;7.80;92.10;;;;;;5036127;28;20180;-90
2023/11/12 12:23:47;;;;;;;79.53;72.30;;;8.00;92.20;;;;;;5036014;28;20234;-90